sensor_id;sensor_type;location;lat;lon;timestamp;pressure;altitude;pressure_sealevel;temperature;humidity
12203;BME280;6164;42.178;24.622;2022-08-19T00:01:33;99081.00;;;24.29;54.51
12203;BME280;6164;42.178;24.622;2022-08-19T00:04:02;99073.72;;;24.25;54.41
12203;BME280;6164;42.178;24.622;2022-08-19T00:06:29;99071.53;;;24.22;54.69
12203;BME280;6164;42.178;24.622;2022-08-19T00:08:56;99074.50;;;24.15;54.68
12203;BME280;6164;42.178;24.622;2022-08-19T00:11:25;99079.09;;;24.10;55.03
12203;BME280;6164;42.178;24.622;2022-08-19T00:13:52;99071.81;;;24.15;55.39
12203;BME280;6164;42.178;24.622;2022-08-19T00:16:19;99073.72;;;24.05;55.07
12203;BME280;6164;42.178;24.622;2022-08-19T00:18:47;99075.53;;;23.94;55.34
12203;BME280;6164;42.178;24.622;2022-08-19T00:21:14;99063.13;;;23.88;55.20
12203;BME280;6164;42.178;24.622;2022-08-19T00:23:40;99072.56;;;23.91;54.94
12203;BME280;6164;42.178;24.622;2022-08-19T00:26:08;99064.75;;;23.89;54.94
12203;BME280;6164;42.178;24.622;2022-08-19T00:28:34;99063.66;;;23.85;55.12
12203;BME280;6164;42.178;24.622;2022-08-19T00:31:01;99061.22;;;23.89;55.00
12203;BME280;6164;42.178;24.622;2022-08-19T00:33:28;99059.91;;;23.91;55.42
12203;BME280;6164;42.178;24.622;2022-08-19T00:35:57;99054.78;;;23.95;55.49
12203;BME280;6164;42.178;24.622;2022-08-19T00:38:23;99056.66;;;23.94;55.19
12203;BME280;6164;42.178;24.622;2022-08-19T00:40:50;99056.16;;;24.02;55.23
12203;BME280;6164;42.178;24.622;2022-08-19T00:43:18;99051.31;;;24.09;55.35
12203;BME280;6164;42.178;24.622;2022-08-19T00:45:44;99054.28;;;24.13;55.40
12203;BME280;6164;42.178;24.622;2022-08-19T00:48:12;99048.06;;;24.07;55.30
12203;BME280;6164;42.178;24.622;2022-08-19T00:50:39;99054.00;;;24.04;54.48
12203;BME280;6164;42.178;24.622;2022-08-19T00:53:09;99051.56;;;23.98;54.83
12203;BME280;6164;42.178;24.622;2022-08-19T00:55:36;99048.56;;;23.94;55.42
12203;BME280;6164;42.178;24.622;2022-08-19T00:58:04;99041.03;;;23.91;55.40
12203;BME280;6164;42.178;24.622;2022-08-19T01:00:33;99035.63;;;23.91;55.31
12203;BME280;6164;42.178;24.622;2022-08-19T01:03:01;99037.50;;;23.96;55.87
12203;BME280;6164;42.178;24.622;2022-08-19T01:05:28;99049.69;;;23.98;55.67
12203;BME280;6164;42.178;24.622;2022-08-19T01:07:55;99043.22;;;23.99;55.00
12203;BME280;6164;42.178;24.622;2022-08-19T01:10:25;99047.78;;;24.04;54.74
12203;BME280;6164;42.178;24.622;2022-08-19T01:12:52;99051.84;;;24.06;55.95
12203;BME280;6164;42.178;24.622;2022-08-19T01:15:21;99047.00;;;24.08;56.21
12203;BME280;6164;42.178;24.622;2022-08-19T01:17:48;99038.91;;;24.03;55.26
12203;BME280;6164;42.178;24.622;2022-08-19T01:20:16;99040.19;;;23.91;56.64
12203;BME280;6164;42.178;24.622;2022-08-19T01:22:46;99045.03;;;23.89;56.28
12203;BME280;6164;42.178;24.622;2022-08-19T01:25:13;99038.84;;;23.78;56.01
12203;BME280;6164;42.178;24.622;2022-08-19T01:27:41;99041.50;;;23.68;57.15
12203;BME280;6164;42.178;24.622;2022-08-19T01:30:09;99042.81;;;23.51;57.63
12203;BME280;6164;42.178;24.622;2022-08-19T01:32:36;99050.81;;;23.30;57.95
12203;BME280;6164;42.178;24.622;2022-08-19T01:35:03;99048.66;;;23.27;57.88
12203;BME280;6164;42.178;24.622;2022-08-19T01:37:30;99048.03;;;23.15;58.48
12203;BME280;6164;42.178;24.622;2022-08-19T01:40:09;99057.16;;;23.09;58.76
12203;BME280;6164;42.178;24.622;2022-08-19T01:42:36;99066.03;;;23.10;58.92
12203;BME280;6164;42.178;24.622;2022-08-19T01:45:06;99065.25;;;23.09;58.92
12203;BME280;6164;42.178;24.622;2022-08-19T01:47:33;99071.94;;;23.07;59.12
12203;BME280;6164;42.178;24.622;2022-08-19T01:49:59;99074.28;;;22.93;59.69
12203;BME280;6164;42.178;24.622;2022-08-19T01:52:26;99072.38;;;22.89;61.16
12203;BME280;6164;42.178;24.622;2022-08-19T01:54:53;99086.00;;;22.72;63.10
12203;BME280;6164;42.178;24.622;2022-08-19T01:57:20;99085.03;;;22.52;65.18
12203;BME280;6164;42.178;24.622;2022-08-19T01:59:47;99082.22;;;22.37;66.65
12203;BME280;6164;42.178;24.622;2022-08-19T02:02:13;99085.31;;;22.24;68.01
12203;BME280;6164;42.178;24.622;2022-08-19T02:04:40;99085.78;;;22.15;68.53
12203;BME280;6164;42.178;24.622;2022-08-19T02:07:07;99079.41;;;21.95;69.50
12203;BME280;6164;42.178;24.622;2022-08-19T02:09:34;99086.63;;;21.94;70.06
12203;BME280;6164;42.178;24.622;2022-08-19T02:12:00;99084.91;;;21.83;70.26
12203;BME280;6164;42.178;24.622;2022-08-19T02:14:28;99090.59;;;21.87;70.45
12203;BME280;6164;42.178;24.622;2022-08-19T02:16:55;99099.19;;;21.84;70.02
12203;BME280;6164;42.178;24.622;2022-08-19T02:19:21;99104.91;;;21.92;69.25
12203;BME280;6164;42.178;24.622;2022-08-19T02:21:48;99108.13;;;21.94;69.61
12203;BME280;6164;42.178;24.622;2022-08-19T02:24:14;99105.44;;;21.94;70.04
12203;BME280;6164;42.178;24.622;2022-08-19T02:26:41;99109.28;;;21.98;69.86
12203;BME280;6164;42.178;24.622;2022-08-19T02:29:07;99105.31;;;22.06;69.86
12203;BME280;6164;42.178;24.622;2022-08-19T02:31:35;99107.16;;;22.00;70.23
12203;BME280;6164;42.178;24.622;2022-08-19T02:34:02;99115.16;;;21.95;70.52
12203;BME280;6164;42.178;24.622;2022-08-19T02:36:28;99107.41;;;21.99;70.84
12203;BME280;6164;42.178;24.622;2022-08-19T02:38:56;99114.34;;;21.95;70.84
12203;BME280;6164;42.178;24.622;2022-08-19T02:41:22;99118.22;;;22.04;70.91
12203;BME280;6164;42.178;24.622;2022-08-19T02:43:49;99124.13;;;22.06;71.83
12203;BME280;6164;42.178;24.622;2022-08-19T02:46:16;99126.13;;;22.15;73.46
12203;BME280;6164;42.178;24.622;2022-08-19T02:48:47;99124.28;;;22.21;74.74
12203;BME280;6164;42.178;24.622;2022-08-19T02:51:17;99123.97;;;22.17;73.11
12203;BME280;6164;42.178;24.622;2022-08-19T02:53:44;99130.72;;;22.20;74.78
12203;BME280;6164;42.178;24.622;2022-08-19T02:56:10;99131.78;;;22.19;73.41
12203;BME280;6164;42.178;24.622;2022-08-19T02:58:37;99132.09;;;22.23;73.50
12203;BME280;6164;42.178;24.622;2022-08-19T03:01:04;99128.34;;;22.24;72.25
12203;BME280;6164;42.178;24.622;2022-08-19T03:03:30;99135.84;;;22.22;72.18
12203;BME280;6164;42.178;24.622;2022-08-19T03:06:09;99128.88;;;22.21;72.27
12203;BME280;6164;42.178;24.622;2022-08-19T03:08:38;99137.41;;;22.17;72.43
12203;BME280;6164;42.178;24.622;2022-08-19T03:11:05;99141.22;;;22.22;73.64
12203;BME280;6164;42.178;24.622;2022-08-19T03:13:31;99134.91;;;22.11;73.31
12203;BME280;6164;42.178;24.622;2022-08-19T03:15:58;99139.31;;;22.17;74.51
12203;BME280;6164;42.178;24.622;2022-08-19T03:18:24;99141.19;;;22.16;74.61
12203;BME280;6164;42.178;24.622;2022-08-19T03:20:51;99150.06;;;22.17;74.73
12203;BME280;6164;42.178;24.622;2022-08-19T03:23:20;99149.75;;;22.13;73.67
12203;BME280;6164;42.178;24.622;2022-08-19T03:25:48;99146.59;;;22.22;74.87
12203;BME280;6164;42.178;24.622;2022-08-19T03:28:15;99147.91;;;22.19;74.06
12203;BME280;6164;42.178;24.622;2022-08-19T03:30:43;99157.00;;;22.13;74.41
12203;BME280;6164;42.178;24.622;2022-08-19T03:33:21;99158.13;;;22.17;75.85
12203;BME280;6164;42.178;24.622;2022-08-19T03:36:01;99158.66;;;22.19;75.66
12203;BME280;6164;42.178;24.622;2022-08-19T03:38:29;99161.31;;;22.14;75.02
12203;BME280;6164;42.178;24.622;2022-08-19T03:40:55;99157.56;;;22.15;74.82
12203;BME280;6164;42.178;24.622;2022-08-19T03:43:21;99162.44;;;22.18;77.39
12203;BME280;6164;42.178;24.622;2022-08-19T03:45:59;99161.13;;;22.21;77.63
12203;BME280;6164;42.178;24.622;2022-08-19T03:48:25;99163.75;;;22.15;75.94
12203;BME280;6164;42.178;24.622;2022-08-19T03:50:52;99173.31;;;22.06;75.97
12203;BME280;6164;42.178;24.622;2022-08-19T03:53:18;99170.56;;;22.01;76.08
12203;BME280;6164;42.178;24.622;2022-08-19T03:55:46;99168.41;;;21.98;76.25
12203;BME280;6164;42.178;24.622;2022-08-19T03:58:12;99166.22;;;21.95;76.09
12203;BME280;6164;42.178;24.622;2022-08-19T04:00:41;99167.59;;;21.98;76.15
12203;BME280;6164;42.178;24.622;2022-08-19T04:03:08;99171.72;;;21.84;75.97
12203;BME280;6164;42.178;24.622;2022-08-19T04:05:35;99181.38;;;21.63;77.38
12203;BME280;6164;42.178;24.622;2022-08-19T04:08:03;99180.25;;;21.59;77.31
12203;BME280;6164;42.178;24.622;2022-08-19T04:10:30;99181.16;;;21.48;77.80
12203;BME280;6164;42.178;24.622;2022-08-19T04:12:59;99183.75;;;21.38;77.30
12203;BME280;6164;42.178;24.622;2022-08-19T04:15:25;99187.31;;;21.27;78.10
12203;BME280;6164;42.178;24.622;2022-08-19T04:17:53;99190.78;;;21.06;79.61
12203;BME280;6164;42.178;24.622;2022-08-19T04:20:20;99188.81;;;21.02;80.87
12203;BME280;6164;42.178;24.622;2022-08-19T04:22:46;99179.38;;;20.99;82.19
12203;BME280;6164;42.178;24.622;2022-08-19T04:25:13;99180.91;;;20.95;82.75
12203;BME280;6164;42.178;24.622;2022-08-19T04:27:39;99182.06;;;20.99;83.14
12203;BME280;6164;42.178;24.622;2022-08-19T04:30:10;99194.97;;;21.02;83.87
12203;BME280;6164;42.178;24.622;2022-08-19T04:32:36;99192.63;;;21.06;83.74
12203;BME280;6164;42.178;24.622;2022-08-19T04:35:04;99186.94;;;21.02;84.46
12203;BME280;6164;42.178;24.622;2022-08-19T04:37:30;99194.19;;;21.02;85.25
12203;BME280;6164;42.178;24.622;2022-08-19T04:39:58;99203.69;;;21.09;85.69
12203;BME280;6164;42.178;24.622;2022-08-19T04:42:42;99206.84;;;21.23;85.26
12203;BME280;6164;42.178;24.622;2022-08-19T04:45:11;99205.69;;;21.35;84.16
12203;BME280;6164;42.178;24.622;2022-08-19T04:47:38;99196.22;;;21.49;82.71
12203;BME280;6164;42.178;24.622;2022-08-19T04:50:06;99194.72;;;21.58;81.39
12203;BME280;6164;42.178;24.622;2022-08-19T04:52:32;99194.88;;;21.68;81.29
12203;BME280;6164;42.178;24.622;2022-08-19T04:54:59;99192.97;;;21.85;81.00
12203;BME280;6164;42.178;24.622;2022-08-19T04:57:26;99186.91;;;21.95;79.52
12203;BME280;6164;42.178;24.622;2022-08-19T04:59:53;99192.84;;;21.97;78.66
12203;BME280;6164;42.178;24.622;2022-08-19T05:02:21;99198.84;;;22.04;79.25
12203;BME280;6164;42.178;24.622;2022-08-19T05:04:50;99196.31;;;22.19;78.82
12203;BME280;6164;42.178;24.622;2022-08-19T05:07:17;99197.50;;;22.28;76.59
12203;BME280;6164;42.178;24.622;2022-08-19T05:09:43;99199.53;;;22.43;76.01
12203;BME280;6164;42.178;24.622;2022-08-19T05:12:10;99194.28;;;22.53;74.97
12203;BME280;6164;42.178;24.622;2022-08-19T05:14:36;99201.31;;;22.59;74.86
12203;BME280;6164;42.178;24.622;2022-08-19T05:17:03;99213.81;;;22.70;74.01
12203;BME280;6164;42.178;24.622;2022-08-19T05:19:31;99211.91;;;22.70;73.98
12203;BME280;6164;42.178;24.622;2022-08-19T05:22:15;99209.88;;;22.82;73.60
12203;BME280;6164;42.178;24.622;2022-08-19T05:25:01;99211.31;;;22.95;73.42
12203;BME280;6164;42.178;24.622;2022-08-19T05:27:28;99210.31;;;23.01;72.96
12203;BME280;6164;42.178;24.622;2022-08-19T05:29:57;99215.50;;;23.12;73.17
12203;BME280;6164;42.178;24.622;2022-08-19T05:32:24;99211.50;;;23.20;71.39
12203;BME280;6164;42.178;24.622;2022-08-19T05:34:52;99219.41;;;23.26;71.57
12203;BME280;6164;42.178;24.622;2022-08-19T05:37:18;99213.56;;;23.39;71.86
12203;BME280;6164;42.178;24.622;2022-08-19T05:39:45;99214.16;;;23.47;71.92
12203;BME280;6164;42.178;24.622;2022-08-19T05:42:12;99219.28;;;23.48;72.39
12203;BME280;6164;42.178;24.622;2022-08-19T05:44:40;99220.69;;;23.56;72.54
12203;BME280;6164;42.178;24.622;2022-08-19T05:47:09;99208.25;;;23.55;69.54
12203;BME280;6164;42.178;24.622;2022-08-19T05:49:36;99215.84;;;23.63;69.33
12203;BME280;6164;42.178;24.622;2022-08-19T05:52:04;99215.91;;;23.73;68.73
12203;BME280;6164;42.178;24.622;2022-08-19T05:54:32;99211.91;;;23.80;68.68
12203;BME280;6164;42.178;24.622;2022-08-19T05:57:00;99219.75;;;23.87;67.39
12203;BME280;6164;42.178;24.622;2022-08-19T05:59:26;99210.94;;;24.01;66.97
12203;BME280;6164;42.178;24.622;2022-08-19T06:01:53;99212.03;;;24.10;66.77
12203;BME280;6164;42.178;24.622;2022-08-19T06:04:22;99211.03;;;24.26;64.05
12203;BME280;6164;42.178;24.622;2022-08-19T06:06:49;99210.53;;;24.39;63.62
12203;BME280;6164;42.178;24.622;2022-08-19T06:09:18;99208.63;;;24.50;63.12
12203;BME280;6164;42.178;24.622;2022-08-19T06:11:45;99216.22;;;24.63;63.34
12203;BME280;6164;42.178;24.622;2022-08-19T06:14:13;99215.19;;;24.74;62.36
12203;BME280;6164;42.178;24.622;2022-08-19T06:16:41;99222.47;;;24.79;62.30
12203;BME280;6164;42.178;24.622;2022-08-19T06:19:08;99220.06;;;24.92;62.20
12203;BME280;6164;42.178;24.622;2022-08-19T06:21:35;99225.19;;;24.99;63.05
12203;BME280;6164;42.178;24.622;2022-08-19T06:24:03;99221.66;;;25.18;61.13
12203;BME280;6164;42.178;24.622;2022-08-19T06:26:31;99227.63;;;25.35;58.74
12203;BME280;6164;42.178;24.622;2022-08-19T06:28:59;99229.78;;;25.43;57.80
12203;BME280;6164;42.178;24.622;2022-08-19T06:31:27;99232.16;;;25.65;57.47
12203;BME280;6164;42.178;24.622;2022-08-19T06:33:54;99238.88;;;25.82;54.99
12203;BME280;6164;42.178;24.622;2022-08-19T06:36:21;99233.13;;;25.99;55.49
12203;BME280;6164;42.178;24.622;2022-08-19T06:38:49;99233.13;;;26.09;54.19
12203;BME280;6164;42.178;24.622;2022-08-19T06:41:16;99234.63;;;26.30;53.00
12203;BME280;6164;42.178;24.622;2022-08-19T06:43:43;99234.28;;;26.47;53.81
12203;BME280;6164;42.178;24.622;2022-08-19T06:46:11;99230.69;;;26.56;53.95
12203;BME280;6164;42.178;24.622;2022-08-19T06:48:38;99231.75;;;26.65;53.95
12203;BME280;6164;42.178;24.622;2022-08-19T06:51:04;99231.44;;;26.72;53.38
12203;BME280;6164;42.178;24.622;2022-08-19T06:53:31;99238.69;;;26.81;54.27
12203;BME280;6164;42.178;24.622;2022-08-19T06:55:58;99236.13;;;26.95;52.34
12203;BME280;6164;42.178;24.622;2022-08-19T06:58:27;99233.59;;;27.03;53.37
12203;BME280;6164;42.178;24.622;2022-08-19T07:00:55;99225.41;;;27.13;52.43
12203;BME280;6164;42.178;24.622;2022-08-19T07:03:22;99228.63;;;27.15;53.55
12203;BME280;6164;42.178;24.622;2022-08-19T07:05:49;99225.56;;;27.27;51.35
12203;BME280;6164;42.178;24.622;2022-08-19T07:08:15;99226.00;;;27.39;51.76
12203;BME280;6164;42.178;24.622;2022-08-19T07:10:42;99225.16;;;27.44;50.09
12203;BME280;6164;42.178;24.622;2022-08-19T07:13:09;99227.53;;;27.50;50.41
12203;BME280;6164;42.178;24.622;2022-08-19T07:15:36;99227.47;;;27.55;50.84
12203;BME280;6164;42.178;24.622;2022-08-19T07:18:04;99227.06;;;27.67;48.86
12203;BME280;6164;42.178;24.622;2022-08-19T07:20:31;99221.78;;;27.80;49.21
12203;BME280;6164;42.178;24.622;2022-08-19T07:22:57;99215.09;;;27.96;49.66
12203;BME280;6164;42.178;24.622;2022-08-19T07:25:24;99219.28;;;28.07;48.07
12203;BME280;6164;42.178;24.622;2022-08-19T07:27:52;99217.03;;;28.14;47.44
12203;BME280;6164;42.178;24.622;2022-08-19T07:30:18;99223.38;;;28.28;48.22
12203;BME280;6164;42.178;24.622;2022-08-19T07:32:45;99223.84;;;28.30;47.56
12203;BME280;6164;42.178;24.622;2022-08-19T07:35:13;99225.44;;;28.36;47.94
12203;BME280;6164;42.178;24.622;2022-08-19T07:37:39;99220.72;;;28.42;47.76
12203;BME280;6164;42.178;24.622;2022-08-19T07:40:09;99219.94;;;28.41;47.73
12203;BME280;6164;42.178;24.622;2022-08-19T07:42:36;99220.16;;;28.45;48.14
12203;BME280;6164;42.178;24.622;2022-08-19T07:45:03;99219.44;;;28.58;47.53
12203;BME280;6164;42.178;24.622;2022-08-19T07:47:30;99223.63;;;28.69;47.41
12203;BME280;6164;42.178;24.622;2022-08-19T07:49:56;99218.63;;;28.58;46.74
12203;BME280;6164;42.178;24.622;2022-08-19T07:52:24;99219.28;;;28.68;47.48
12203;BME280;6164;42.178;24.622;2022-08-19T07:54:50;99221.63;;;28.75;47.52
12203;BME280;6164;42.178;24.622;2022-08-19T07:57:17;99208.13;;;28.70;46.97
12203;BME280;6164;42.178;24.622;2022-08-19T07:59:44;99210.22;;;28.91;47.32
12203;BME280;6164;42.178;24.622;2022-08-19T08:02:10;99213.88;;;29.00;47.31
12203;BME280;6164;42.178;24.622;2022-08-19T08:04:37;99217.19;;;28.97;46.55
12203;BME280;6164;42.178;24.622;2022-08-19T08:07:21;99213.75;;;29.10;46.16
12203;BME280;6164;42.178;24.622;2022-08-19T08:10:06;99212.06;;;29.28;45.57
12203;BME280;6164;42.178;24.622;2022-08-19T08:12:34;99211.19;;;29.46;46.86
12203;BME280;6164;42.178;24.622;2022-08-19T08:15:04;99211.41;;;29.63;45.08
12203;BME280;6164;42.178;24.622;2022-08-19T08:17:32;99218.81;;;29.76;44.90
12203;BME280;6164;42.178;24.622;2022-08-19T08:19:59;99212.94;;;29.83;44.30
12203;BME280;6164;42.178;24.622;2022-08-19T08:22:26;99210.53;;;29.95;43.80
12203;BME280;6164;42.178;24.622;2022-08-19T08:25:13;99208.78;;;30.12;43.62
12203;BME280;6164;42.178;24.622;2022-08-19T08:27:40;99204.97;;;30.27;43.84
12203;BME280;6164;42.178;24.622;2022-08-19T08:30:07;99217.44;;;30.41;42.38
12203;BME280;6164;42.178;24.622;2022-08-19T08:32:34;99210.16;;;30.50;42.56
12203;BME280;6164;42.178;24.622;2022-08-19T08:35:01;99213.84;;;30.54;41.86
12203;BME280;6164;42.178;24.622;2022-08-19T08:37:28;99198.22;;;30.60;41.90
12203;BME280;6164;42.178;24.622;2022-08-19T08:39:55;99192.22;;;30.71;41.90
12203;BME280;6164;42.178;24.622;2022-08-19T08:42:24;99199.31;;;30.95;41.50
12203;BME280;6164;42.178;24.622;2022-08-19T08:44:53;99200.22;;;31.12;41.44
12203;BME280;6164;42.178;24.622;2022-08-19T08:47:23;99199.63;;;31.24;40.70
12203;BME280;6164;42.178;24.622;2022-08-19T08:49:51;99207.59;;;31.34;40.06
12203;BME280;6164;42.178;24.622;2022-08-19T08:52:21;99221.59;;;31.41;38.37
12203;BME280;6164;42.178;24.622;2022-08-19T08:54:48;99208.50;;;31.51;38.59
12203;BME280;6164;42.178;24.622;2022-08-19T08:57:18;99213.38;;;31.63;38.48
12203;BME280;6164;42.178;24.622;2022-08-19T08:59:47;99203.63;;;31.79;38.34
12203;BME280;6164;42.178;24.622;2022-08-19T09:02:15;99201.44;;;31.98;38.71
12203;BME280;6164;42.178;24.622;2022-08-19T09:04:42;99201.97;;;32.08;38.19
12203;BME280;6164;42.178;24.622;2022-08-19T09:07:12;99194.75;;;32.21;38.43
12203;BME280;6164;42.178;24.622;2022-08-19T09:09:43;99190.28;;;32.34;37.79
12203;BME280;6164;42.178;24.622;2022-08-19T09:12:13;99188.88;;;32.53;38.39
12203;BME280;6164;42.178;24.622;2022-08-19T09:14:45;99201.91;;;32.65;37.15
12203;BME280;6164;42.178;24.622;2022-08-19T09:17:15;99194.97;;;32.76;37.61
12203;BME280;6164;42.178;24.622;2022-08-19T09:19:49;99193.69;;;32.90;37.43
12203;BME280;6164;42.178;24.622;2022-08-19T09:22:16;99186.28;;;32.99;38.29
12203;BME280;6164;42.178;24.622;2022-08-19T09:24:46;99190.44;;;33.05;37.08
12203;BME280;6164;42.178;24.622;2022-08-19T09:27:13;99199.78;;;33.13;36.02
12203;BME280;6164;42.178;24.622;2022-08-19T09:29:39;99209.56;;;33.22;35.20
12203;BME280;6164;42.178;24.622;2022-08-19T09:32:06;99215.34;;;33.29;34.32
12203;BME280;6164;42.178;24.622;2022-08-19T09:34:33;99218.69;;;33.35;34.85
12203;BME280;6164;42.178;24.622;2022-08-19T09:37:00;99201.63;;;33.38;35.37
12203;BME280;6164;42.178;24.622;2022-08-19T09:39:28;99200.63;;;33.51;35.05
12203;BME280;6164;42.178;24.622;2022-08-19T09:41:55;99194.28;;;33.68;35.08
12203;BME280;6164;42.178;24.622;2022-08-19T09:44:22;99191.81;;;33.83;34.81
12203;BME280;6164;42.178;24.622;2022-08-19T09:46:49;99204.16;;;33.89;34.50
12203;BME280;6164;42.178;24.622;2022-08-19T09:49:16;99213.34;;;34.02;34.05
12203;BME280;6164;42.178;24.622;2022-08-19T09:51:44;99235.59;;;34.00;32.81
12203;BME280;6164;42.178;24.622;2022-08-19T09:54:13;99214.06;;;34.11;33.68
12203;BME280;6164;42.178;24.622;2022-08-19T09:56:40;99186.47;;;34.16;34.78
12203;BME280;6164;42.178;24.622;2022-08-19T09:59:06;99194.50;;;34.21;34.03
12203;BME280;6164;42.178;24.622;2022-08-19T10:01:34;99187.03;;;34.30;33.94
12203;BME280;6164;42.178;24.622;2022-08-19T10:04:01;99177.13;;;34.37;34.13
12203;BME280;6164;42.178;24.622;2022-08-19T10:06:29;99194.47;;;34.50;33.42
12203;BME280;6164;42.178;24.622;2022-08-19T10:08:59;99203.91;;;34.61;32.81
12203;BME280;6164;42.178;24.622;2022-08-19T10:11:26;99206.34;;;34.75;32.42
12203;BME280;6164;42.178;24.622;2022-08-19T10:13:53;99193.84;;;34.86;32.82
12203;BME280;6164;42.178;24.622;2022-08-19T10:16:20;99206.72;;;34.94;32.40
12203;BME280;6164;42.178;24.622;2022-08-19T10:18:47;99222.38;;;34.93;31.48
12203;BME280;6164;42.178;24.622;2022-08-19T10:21:14;99203.53;;;34.83;32.53
12203;BME280;6164;42.178;24.622;2022-08-19T10:23:42;99181.69;;;34.95;33.39
12203;BME280;6164;42.178;24.622;2022-08-19T10:26:12;99176.25;;;35.07;33.01
12203;BME280;6164;42.178;24.622;2022-08-19T10:28:39;99189.06;;;35.15;31.89
12203;BME280;6164;42.178;24.622;2022-08-19T10:31:06;99191.03;;;35.27;31.40
12203;BME280;6164;42.178;24.622;2022-08-19T10:33:33;99191.38;;;35.37;31.55
12203;BME280;6164;42.178;24.622;2022-08-19T10:36:00;99243.00;;;35.44;29.47
12203;BME280;6164;42.178;24.622;2022-08-19T10:38:26;99262.22;;;35.44;29.34
12203;BME280;6164;42.178;24.622;2022-08-19T10:40:54;99201.50;;;35.57;31.48
12203;BME280;6164;42.178;24.622;2022-08-19T10:43:22;99228.44;;;35.76;29.36
12203;BME280;6164;42.178;24.622;2022-08-19T10:45:51;99228.78;;;35.74;29.79
12203;BME280;6164;42.178;24.622;2022-08-19T10:48:18;99298.13;;;35.39;28.05
12203;BME280;6164;42.178;24.622;2022-08-19T10:50:45;99290.22;;;35.37;28.76
12203;BME280;6164;42.178;24.622;2022-08-19T10:53:29;99278.47;;;35.49;28.96
12203;BME280;6164;42.178;24.622;2022-08-19T10:55:55;99258.63;;;35.52;29.56
12203;BME280;6164;42.178;24.622;2022-08-19T10:58:40;99260.69;;;35.67;28.99
12203;BME280;6164;42.178;24.622;2022-08-19T11:01:07;99246.63;;;35.80;29.57
12203;BME280;6164;42.178;24.622;2022-08-19T11:03:33;99243.69;;;35.98;28.90
12203;BME280;6164;42.178;24.622;2022-08-19T11:06:00;99243.13;;;36.16;28.97
12203;BME280;6164;42.178;24.622;2022-08-19T11:08:27;99222.38;;;36.31;30.08
12203;BME280;6164;42.178;24.622;2022-08-19T11:10:54;99234.84;;;36.28;29.62
12203;BME280;6164;42.178;24.622;2022-08-19T11:13:25;99233.59;;;36.26;29.31
12203;BME280;6164;42.178;24.622;2022-08-19T11:16:04;99236.56;;;36.33;29.26
12203;BME280;6164;42.178;24.622;2022-08-19T11:18:32;99216.50;;;36.44;29.90
12203;BME280;6164;42.178;24.622;2022-08-19T11:21:05;99220.63;;;36.50;29.50
12203;BME280;6164;42.178;24.622;2022-08-19T11:23:31;99211.66;;;36.65;29.33
12203;BME280;6164;42.178;24.622;2022-08-19T11:25:58;99206.44;;;36.76;29.53
12203;BME280;6164;42.178;24.622;2022-08-19T11:28:26;99253.34;;;36.67;27.74
12203;BME280;6164;42.178;24.622;2022-08-19T11:30:53;99226.41;;;36.73;28.58
12203;BME280;6164;42.178;24.622;2022-08-19T11:33:21;99265.50;;;36.78;27.24
12203;BME280;6164;42.178;24.622;2022-08-19T11:35:47;99270.88;;;36.75;27.10
12203;BME280;6164;42.178;24.622;2022-08-19T11:38:14;99261.91;;;36.90;27.41
12203;BME280;6164;42.178;24.622;2022-08-19T11:40:40;99271.97;;;36.98;27.45
12203;BME280;6164;42.178;24.622;2022-08-19T11:43:07;99282.97;;;36.98;26.94
12203;BME280;6164;42.178;24.622;2022-08-19T11:45:34;99309.84;;;36.77;26.47
12203;BME280;6164;42.178;24.622;2022-08-19T11:48:01;99304.00;;;36.66;26.33
12203;BME280;6164;42.178;24.622;2022-08-19T11:50:29;99310.91;;;36.48;26.74
12203;BME280;6164;42.178;24.622;2022-08-19T11:52:56;99289.59;;;36.57;26.85
12203;BME280;6164;42.178;24.622;2022-08-19T11:55:23;99295.34;;;36.52;26.43
12203;BME280;6164;42.178;24.622;2022-08-19T11:57:49;99297.94;;;36.61;26.30
12203;BME280;6164;42.178;24.622;2022-08-19T12:00:16;99320.16;;;36.68;25.44
12203;BME280;6164;42.178;24.622;2022-08-19T12:02:42;99299.06;;;36.84;26.00
12203;BME280;6164;42.178;24.622;2022-08-19T12:05:09;99279.97;;;37.03;26.76
12203;BME280;6164;42.178;24.622;2022-08-19T12:07:37;99300.22;;;37.11;26.21
12203;BME280;6164;42.178;24.622;2022-08-19T12:10:03;99292.81;;;36.99;27.14
12203;BME280;6164;42.178;24.622;2022-08-19T12:12:30;99283.00;;;36.86;26.33
12203;BME280;6164;42.178;24.622;2022-08-19T12:14:56;99270.81;;;36.99;26.52
12203;BME280;6164;42.178;24.622;2022-08-19T12:17:23;99294.25;;;36.81;26.06
12203;BME280;6164;42.178;24.622;2022-08-19T12:19:50;99291.44;;;37.05;25.43
12203;BME280;6164;42.178;24.622;2022-08-19T12:22:17;99297.94;;;37.25;25.55
12203;BME280;6164;42.178;24.622;2022-08-19T12:24:47;99290.50;;;37.41;26.30
12203;BME280;6164;42.178;24.622;2022-08-19T12:27:15;99276.16;;;37.63;26.27
12203;BME280;6164;42.178;24.622;2022-08-19T12:29:42;99293.06;;;37.77;25.54
12203;BME280;6164;42.178;24.622;2022-08-19T12:32:08;99302.59;;;37.95;25.21
12203;BME280;6164;42.178;24.622;2022-08-19T12:34:35;99310.25;;;38.17;24.51
12203;BME280;6164;42.178;24.622;2022-08-19T12:37:03;99303.22;;;38.35;25.11
12203;BME280;6164;42.178;24.622;2022-08-19T12:39:33;99319.44;;;38.56;24.67
12203;BME280;6164;42.178;24.622;2022-08-19T12:42:01;99318.34;;;38.76;24.51
12203;BME280;6164;42.178;24.622;2022-08-19T12:44:28;99293.78;;;39.05;25.21
12203;BME280;6164;42.178;24.622;2022-08-19T12:46:55;99354.75;;;39.16;23.23
12203;BME280;6164;42.178;24.622;2022-08-19T12:49:22;99345.81;;;39.22;24.42
12203;BME280;6164;42.178;24.622;2022-08-19T12:51:50;99354.50;;;39.24;23.13
12203;BME280;6164;42.178;24.622;2022-08-19T12:54:17;99362.59;;;39.33;23.43
12203;BME280;6164;42.178;24.622;2022-08-19T12:56:43;99353.72;;;39.43;24.24
12203;BME280;6164;42.178;24.622;2022-08-19T12:59:11;99328.22;;;39.50;25.39
12203;BME280;6164;42.178;24.622;2022-08-19T13:01:38;99347.56;;;39.50;23.67
12203;BME280;6164;42.178;24.622;2022-08-19T13:04:06;99359.34;;;39.47;24.17